createdAt,value
2019-04-01T07:48:02.953Z,118.12
2019-04-01T07:49:02.952Z,118.12
2019-04-01T07:50:02.942Z,118.12
2019-04-01T07:51:02.944Z,123.75
2019-04-01T07:52:02.930Z,123.75
2019-04-01T07:53:02.923Z,123.75
2019-04-01T07:54:02.923Z,129.37
2019-04-01T07:55:02.909Z,129.37
2019-04-01T07:56:02.922Z,135.00
2019-04-01T07:57:02.901Z,135.00
2019-04-01T07:58:02.899Z,140.62
2019-04-01T07:59:02.890Z,146.25
2019-04-01T08:00:02.880Z,146.25
2019-04-01T08:01:02.873Z,151.87
2019-04-01T08:02:02.872Z,157.50
2019-04-01T08:03:02.858Z,157.50
2019-04-01T08:04:02.853Z,168.75
2019-04-01T08:05:02.846Z,180.00
2019-04-01T08:06:02.937Z,185.62
2019-04-01T08:07:02.841Z,202.50
2019-04-01T08:08:02.832Z,219.37
2019-04-01T08:09:02.823Z,241.87
2019-04-01T08:10:02.818Z,264.37
2019-04-01T08:11:02.807Z,286.87
2019-04-01T08:12:02.804Z,309.37
2019-04-01T08:13:02.796Z,331.87
2019-04-01T08:14:02.790Z,337.50
2019-04-01T08:15:02.785Z,348.75
2019-04-01T08:16:02.778Z,365.62
2019-04-01T08:17:02.775Z,371.25
2019-04-01T08:18:02.790Z,382.50
2019-04-01T08:19:02.759Z,388.12
2019-04-01T08:20:02.755Z,399.37
2019-04-01T08:21:02.745Z,410.62
2019-04-01T08:22:02.941Z,416.25
2019-04-01T08:23:02.733Z,416.25
2019-04-01T08:24:02.751Z,427.50
2019-04-01T08:25:02.742Z,433.12
2019-04-01T08:26:02.742Z,444.37
2019-04-01T08:27:02.731Z,455.62
2019-04-01T08:28:02.727Z,455.62
2019-04-01T08:29:02.721Z,472.50
2019-04-01T08:30:02.717Z,478.12
2019-04-01T08:31:02.710Z,483.75
2019-04-01T08:32:02.701Z,489.37
2019-04-01T08:33:02.695Z,500.62
2019-04-01T08:34:02.691Z,511.87
2019-04-01T08:35:02.680Z,517.50
2019-04-01T08:36:02.677Z,523.12
2019-04-01T08:37:02.667Z,528.75
2019-04-01T08:38:02.658Z,523.12
2019-04-01T08:39:02.654Z,523.12
2019-04-01T08:40:02.646Z,517.50
2019-04-01T08:41:02.641Z,517.50
2019-04-01T08:42:02.635Z,517.50
2019-04-01T08:43:02.627Z,511.87
2019-04-01T08:44:03.338Z,517.50
2019-04-01T08:45:02.637Z,517.50
2019-04-01T08:46:02.628Z,517.50
2019-04-01T08:47:02.624Z,517.50
2019-04-01T08:48:02.614Z,517.50
2019-04-01T08:49:02.617Z,517.50
2019-04-01T08:50:02.613Z,523.12
2019-04-01T08:51:02.594Z,528.75
2019-04-01T08:52:02.589Z,534.37
2019-04-01T08:53:40.962Z,545.62
2019-04-01T08:54:40.699Z,556.87
2019-04-01T08:55:40.694Z,568.12
2019-04-01T08:56:40.687Z,579.37
2019-04-01T08:57:40.682Z,590.62
2019-04-01T08:58:40.675Z,607.50
2019-04-01T08:59:40.672Z,630.00
2019-04-01T09:00:40.667Z,646.87
2019-04-01T09:01:40.659Z,658.12
2019-04-01T09:02:40.654Z,663.75
2019-04-01T09:03:40.648Z,708.75
2019-04-01T09:04:40.644Z,770.62
2019-04-01T09:06:08.494Z,540.00
2019-04-01T09:07:08.361Z,286.87
2019-04-01T09:08:08.356Z,264.37
2019-04-01T09:09:08.350Z,253.12
2019-04-01T09:10:08.345Z,241.87
2019-04-01T09:11:08.337Z,236.25
2019-04-01T09:12:08.333Z,230.62
2019-04-01T09:13:08.341Z,225.00
2019-04-01T09:14:08.340Z,219.37
2019-04-01T09:15:08.330Z,213.75
2019-04-01T09:16:08.326Z,213.75
2019-04-01T09:18:08.311Z,213.75
2019-04-01T09:19:08.307Z,213.75
2019-04-01T09:20:36.027Z,219.37
2019-04-01T09:21:36.026Z,219.37
2019-04-01T09:23:36.014Z,247.50
2019-04-01T09:24:36.012Z,286.87
2019-04-01T09:25:36.003Z,326.25
2019-04-01T09:26:35.995Z,348.75
2019-04-01T09:27:35.989Z,365.62
2019-04-01T09:28:35.983Z,393.75
2019-04-01T09:29:35.978Z,495.00
2019-04-01T09:30:36.179Z,793.12
2019-04-01T09:31:35.969Z,984.37
2019-04-01T09:32:35.962Z,1001.25
2019-04-01T09:33:35.960Z,1006.87
2019-04-01T09:34:35.952Z,1023.75
2019-04-01T09:35:35.943Z,1029.37
2019-04-01T09:36:35.938Z,1046.25
2019-04-01T09:37:35.927Z,1035.00
2019-04-01T09:38:35.924Z,1035.00
2019-04-01T09:39:35.918Z,1057.50
2019-04-01T09:41:03.639Z,1102.50
2019-04-01T09:42:03.634Z,1119.37
2019-04-01T09:43:03.633Z,1119.37
2019-04-01T09:45:03.617Z,1164.37
2019-04-01T09:46:03.613Z,1209.37
2019-04-01T09:47:03.700Z,1243.12
2019-04-01T09:48:03.599Z,1231.87
2019-04-01T09:49:03.590Z,1282.50
2019-04-01T09:50:03.586Z,1350.00
2019-04-01T09:51:03.582Z,1338.75
2019-04-01T09:52:04.068Z,1321.87
2019-04-01T09:53:03.570Z,1310.62
2019-04-01T09:54:03.564Z,1282.50
2019-04-01T09:55:06.104Z,1271.25
2019-04-01T09:56:03.574Z,1293.75
2019-04-01T09:57:16.627Z,1288.12
2019-04-01T09:58:31.436Z,1282.50
2019-04-01T09:59:31.435Z,1305.00
2019-04-01T10:00:31.426Z,1293.75
2019-04-01T10:01:31.421Z,1293.75
2019-04-01T10:02:32.420Z,1378.12
2019-04-01T10:03:31.405Z,1507.50
2019-04-01T10:04:31.402Z,1546.87
2019-04-01T10:05:31.396Z,1507.50
2019-04-01T10:06:31.390Z,1552.50
2019-04-01T10:07:31.518Z,1597.50
2019-04-01T10:08:42.069Z,1524.37
2019-04-01T10:09:59.043Z,1271.25
2019-04-01T10:10:59.043Z,1130.62
2019-04-01T10:11:59.038Z,1023.75
2019-04-01T10:12:59.030Z,961.87
2019-04-01T10:13:59.022Z,933.75
2019-04-01T10:14:59.021Z,916.87
2019-04-01T10:15:59.012Z,900.00
2019-04-01T10:16:59.008Z,866.25
2019-04-01T10:17:59.001Z,815.62
2019-04-01T10:18:58.997Z,781.87
2019-04-01T10:20:00.820Z,742.50
2019-04-01T10:20:58.984Z,703.12
2019-04-01T10:21:58.978Z,652.50
2019-04-01T10:22:58.971Z,579.37
2019-04-01T10:23:58.968Z,399.37
2019-04-01T10:24:58.959Z,236.25
2019-04-01T10:25:58.956Z,202.50
2019-04-01T10:26:58.951Z,191.25
2019-04-01T10:27:58.944Z,180.00
2019-04-01T10:28:58.937Z,174.37
2019-04-01T10:29:58.983Z,168.75
2019-04-01T10:30:58.926Z,168.75
2019-04-01T10:31:58.924Z,163.12
2019-04-01T10:33:02.013Z,163.12
2019-04-01T10:33:58.909Z,163.12
2019-04-01T10:34:58.900Z,163.12
2019-04-01T10:36:58.898Z,157.50
2019-04-01T10:37:58.893Z,157.50
2019-04-01T10:38:58.889Z,157.50
2019-04-01T10:40:00.338Z,151.87
2019-04-01T10:40:58.876Z,151.87
2019-04-01T10:41:58.870Z,151.87
2019-04-01T10:42:58.862Z,151.87
2019-04-01T10:43:58.859Z,151.87
2019-04-01T10:44:58.850Z,146.25
2019-04-01T10:45:58.846Z,146.25
2019-04-01T10:46:58.927Z,146.25
2019-04-01T10:47:58.856Z,146.25
2019-04-01T10:48:58.861Z,146.25
2019-04-01T10:49:58.867Z,140.62
2019-04-01T10:50:58.877Z,140.62
2019-04-01T10:52:26.504Z,140.62
2019-04-01T10:53:26.501Z,140.62
2019-04-01T10:54:26.565Z,140.62
2019-04-01T10:55:26.489Z,135.00
2019-04-01T10:56:26.526Z,135.00
2019-04-01T10:57:26.468Z,135.00
2019-04-01T10:58:26.508Z,135.00
2019-04-01T10:59:26.471Z,129.37
2019-04-01T11:00:26.484Z,129.37
2019-04-01T11:01:26.827Z,129.37
2019-04-01T11:02:26.580Z,129.37
2019-04-01T11:03:26.501Z,129.37
2019-04-01T11:04:26.540Z,129.37
2019-04-01T11:05:26.564Z,123.75
2019-04-01T11:06:26.442Z,123.75
2019-04-01T11:07:26.471Z,123.75
2019-04-01T11:08:26.518Z,123.75
2019-04-01T11:09:54.163Z,118.12
2019-04-01T11:10:54.157Z,118.12
2019-04-01T11:11:54.152Z,118.12
2019-04-01T11:12:54.263Z,118.12
2019-04-01T11:13:54.430Z,118.12
2019-04-01T11:14:54.142Z,118.12
2019-04-01T11:16:21.854Z,112.50
2019-04-01T11:17:21.851Z,112.50
2019-04-01T11:18:21.844Z,112.50
2019-04-01T11:19:21.840Z,112.50
2019-04-01T11:20:21.836Z,106.87
2019-04-01T11:21:21.831Z,106.87
2019-04-01T11:22:21.820Z,106.87
2019-04-01T11:23:21.832Z,106.87
2019-04-01T11:24:21.810Z,106.87
2019-04-01T11:25:21.803Z,106.87
2019-04-01T11:26:21.797Z,101.25
2019-04-01T11:27:21.793Z,101.25
2019-04-01T11:28:21.789Z,101.25
2019-04-01T11:30:21.773Z,95.62
2019-04-01T11:31:21.928Z,95.62
2019-04-01T11:32:21.807Z,95.62
2019-04-01T11:33:21.788Z,95.62
2019-04-01T11:34:21.790Z,95.62
2019-04-01T11:35:21.814Z,95.62
2019-04-01T11:36:21.740Z,95.62
2019-04-01T11:37:21.786Z,90.00
2019-04-01T11:38:21.830Z,90.00
2019-04-01T11:39:21.746Z,90.00
2019-04-01T11:40:21.748Z,90.00
2019-04-01T11:41:21.699Z,90.00
2019-04-01T11:42:23.052Z,84.37
2019-04-01T11:43:22.425Z,84.37
2019-04-01T11:44:22.436Z,84.37
2019-04-01T11:45:22.624Z,84.37
2019-04-01T11:46:23.270Z,84.37
2019-04-01T11:47:22.263Z,84.37
2019-04-01T11:48:21.689Z,84.37
2019-04-01T11:49:21.934Z,78.75
2019-04-01T11:50:21.700Z,78.75
2019-04-01T11:51:32.400Z,78.75
2019-04-01T11:52:49.594Z,78.75
2019-04-01T11:53:49.368Z,78.75
2019-04-01T11:54:49.364Z,78.75
2019-04-01T11:55:49.357Z,78.75
2019-04-01T11:56:49.351Z,73.12
2019-04-01T11:57:49.342Z,73.12
2019-04-01T11:58:49.336Z,73.12
2019-04-01T11:59:49.334Z,73.12
2019-04-01T12:00:49.380Z,73.12
2019-04-01T12:01:49.318Z,73.12
2019-04-01T12:02:49.311Z,73.12
2019-04-01T12:03:49.305Z,73.12
2019-04-01T12:04:49.296Z,67.50
2019-04-01T12:05:49.289Z,67.50
2019-04-01T12:06:49.284Z,67.50
2019-04-01T12:07:49.280Z,67.50
2019-04-01T12:08:49.272Z,67.50
2019-04-01T12:09:52.132Z,67.50
2019-04-01T12:10:49.408Z,67.50
2019-04-01T12:11:49.253Z,67.50
2019-04-01T12:13:16.974Z,61.87
2019-04-01T12:14:16.969Z,61.87
2019-04-01T12:15:16.963Z,61.87
2019-04-01T12:16:16.956Z,61.87
2019-04-01T12:17:16.948Z,61.87
2019-04-01T12:18:16.948Z,61.87
2019-04-01T12:19:18.284Z,61.87
2019-04-01T12:20:16.932Z,56.25
2019-04-01T12:21:16.926Z,56.25
2019-04-01T12:22:45.868Z,56.25
2019-04-01T12:23:44.639Z,56.25
2019-04-01T12:24:44.632Z,56.25
2019-04-01T12:25:44.627Z,56.25
2019-04-01T12:26:44.619Z,56.25
2019-04-01T12:27:45.310Z,56.25
2019-04-01T12:28:44.607Z,56.25
2019-04-01T12:29:48.018Z,56.25
2019-04-01T12:30:44.593Z,56.25
2019-04-01T12:32:44.591Z,56.25
2019-04-01T12:33:44.586Z,56.25
2019-04-01T12:35:12.303Z,56.25
2019-04-01T12:37:12.294Z,50.62
2019-04-01T12:38:12.290Z,50.62
2019-04-01T12:39:12.279Z,50.62
2019-04-01T12:40:12.277Z,50.62
2019-04-01T12:41:39.994Z,50.62
2019-04-01T12:42:39.985Z,50.62
2019-04-01T12:43:39.978Z,50.62
2019-04-01T12:44:41.382Z,50.62
2019-04-01T12:45:40.011Z,50.62
2019-04-01T12:46:39.962Z,50.62
2019-04-01T12:47:42.950Z,50.62
2019-04-01T12:48:39.944Z,50.62
2019-04-01T12:49:39.938Z,50.62
2019-04-01T12:50:39.931Z,50.62
2019-04-01T12:51:39.926Z,50.62
2019-04-01T12:52:39.923Z,50.62
2019-04-01T12:53:39.912Z,45.00
2019-04-01T12:54:39.907Z,45.00
2019-04-01T12:55:40.557Z,45.00
2019-04-01T12:56:39.897Z,45.00
2019-04-01T12:57:40.071Z,45.00
2019-04-01T12:58:39.879Z,45.00
2019-04-01T12:59:39.872Z,45.00
2019-04-01T13:00:39.868Z,45.00
2019-04-01T13:01:39.860Z,45.00
2019-04-01T13:02:39.853Z,45.00
2019-04-01T13:03:39.848Z,45.00
2019-04-01T13:04:39.844Z,45.00
2019-04-01T13:05:39.837Z,45.00
2019-04-01T13:06:39.832Z,45.00
2019-04-01T13:07:39.824Z,45.00
2019-04-01T13:08:39.815Z,45.00
2019-04-01T13:09:39.888Z,45.00
2019-04-01T13:10:39.804Z,45.00
2019-04-01T13:11:39.999Z,45.00
2019-04-01T13:12:39.791Z,45.00
2019-04-01T13:13:39.785Z,45.00
2019-04-01T13:14:40.195Z,45.00
2019-04-01T13:15:40.039Z,45.00
2019-04-01T13:16:39.783Z,45.00
2019-04-01T13:17:39.769Z,45.00
2019-04-01T13:18:39.761Z,45.00
2019-04-01T13:19:39.760Z,45.00
2019-04-01T13:20:39.744Z,39.37
2019-04-01T13:22:09.051Z,39.37
2019-04-01T13:23:08.193Z,39.37
2019-04-01T13:24:07.458Z,39.37
2019-04-01T13:25:07.451Z,39.37
2019-04-01T13:26:07.443Z,39.37
2019-04-01T13:27:09.406Z,39.37
2019-04-01T13:28:07.633Z,39.37
2019-04-01T13:29:07.420Z,39.37
2019-04-01T13:31:07.411Z,39.37
2019-04-01T13:32:07.405Z,39.37
2019-04-01T13:33:07.407Z,39.37
2019-04-01T13:34:07.394Z,39.37
2019-04-01T13:35:07.390Z,39.37
2019-04-01T13:36:07.882Z,39.37
2019-04-01T13:38:10.741Z,39.37
2019-04-01T13:39:07.384Z,39.37
2019-04-01T13:40:07.379Z,39.37
2019-04-01T13:41:42.355Z,39.37
2019-04-01T13:42:37.043Z,39.37
2019-04-01T13:43:35.043Z,39.37
2019-04-01T13:44:37.114Z,39.37
2019-04-01T13:45:35.033Z,39.37
2019-04-01T13:46:35.021Z,39.37
2019-04-01T13:47:35.012Z,39.37
2019-04-01T13:48:35.006Z,33.75
2019-04-01T13:49:35.024Z,33.75
2019-04-01T13:50:34.994Z,33.75
2019-04-01T13:51:34.988Z,33.75
2019-04-01T13:52:34.982Z,33.75
2019-04-01T13:53:34.975Z,33.75
2019-04-01T13:54:34.969Z,33.75
2019-04-01T13:55:34.962Z,33.75
2019-04-01T13:56:34.955Z,33.75
2019-04-01T13:57:34.949Z,33.75
2019-04-01T13:58:34.940Z,33.75
2019-04-01T13:59:48.579Z,33.75
2019-04-01T14:00:36.927Z,33.75
2019-04-01T14:01:34.928Z,33.75
2019-04-01T14:02:34.915Z,33.75
2019-04-01T14:03:34.910Z,33.75
2019-04-01T14:04:34.916Z,33.75
2019-04-01T14:05:34.897Z,33.75
2019-04-01T14:06:34.889Z,33.75
2019-04-01T14:07:34.897Z,33.75
2019-04-01T14:08:34.875Z,33.75
2019-04-01T14:09:34.868Z,33.75
2019-04-01T14:10:34.862Z,33.75
2019-04-01T14:11:34.855Z,33.75
2019-04-01T14:12:34.854Z,33.75
2019-04-01T14:13:34.842Z,33.75
2019-04-01T14:14:34.836Z,33.75
2019-04-01T14:15:34.852Z,33.75
2019-04-01T14:16:34.849Z,33.75
2019-04-01T14:17:34.840Z,33.75
2019-04-01T14:18:34.831Z,33.75
2019-04-01T14:19:34.823Z,33.75
2019-04-01T14:20:34.816Z,33.75
2019-04-01T14:21:34.810Z,33.75
2019-04-01T14:22:34.805Z,28.12
2019-04-01T14:23:34.798Z,28.12
2019-04-01T14:24:34.798Z,28.12
2019-04-01T14:25:35.083Z,28.12
2019-04-01T14:26:34.781Z,28.12
2019-04-01T14:27:34.773Z,28.12
2019-04-01T14:28:34.769Z,28.12
2019-04-01T14:29:36.505Z,28.12
2019-04-01T14:30:36.165Z,28.12
2019-04-01T14:31:35.537Z,28.12
2019-04-01T14:32:34.765Z,28.12
2019-04-01T14:33:34.830Z,28.12
2019-04-01T14:34:35.663Z,28.12
2019-04-01T14:35:35.716Z,28.12
2019-04-01T14:36:34.761Z,28.12
2019-04-01T14:37:34.757Z,28.12
2019-04-01T14:38:34.748Z,28.12
2019-04-01T14:39:35.012Z,28.12
2019-04-01T14:41:02.462Z,28.12
2019-04-01T14:42:02.455Z,28.12
2019-04-01T14:43:02.451Z,28.12
2019-04-01T14:44:02.443Z,28.12
2019-04-01T14:45:02.441Z,28.12
2019-04-01T14:46:30.168Z,28.12
2019-04-01T14:47:30.156Z,28.12
2019-04-01T14:48:30.741Z,28.12
2019-04-01T14:49:30.144Z,28.12
2019-04-01T14:50:30.138Z,28.12
2019-04-01T14:51:30.130Z,28.12
2019-04-01T14:52:32.532Z,28.12
2019-04-01T14:53:30.117Z,28.12
2019-04-01T14:54:30.114Z,28.12
2019-04-01T14:55:58.968Z,28.12
2019-04-01T14:56:57.832Z,28.12
2019-04-01T14:58:00.335Z,28.12
2019-04-01T14:58:57.820Z,28.12
2019-04-01T14:59:57.815Z,28.12
2019-04-01T15:00:57.895Z,28.12
2019-04-01T15:01:59.196Z,28.12
2019-04-01T15:02:57.795Z,22.50
2019-04-01T15:04:57.781Z,28.12
2019-04-01T15:05:57.776Z,22.50
2019-04-01T15:06:57.769Z,22.50
2019-04-01T15:07:57.783Z,22.50
2019-04-01T15:08:57.777Z,22.50
2019-04-01T15:09:57.773Z,22.50
2019-04-01T15:11:25.490Z,22.50
2019-04-01T15:12:25.486Z,22.50
2019-04-01T15:13:25.497Z,22.50
2019-04-01T15:14:25.474Z,22.50
2019-04-01T15:15:25.466Z,22.50
2019-04-01T15:16:25.459Z,22.50
2019-04-01T15:19:27.024Z,22.50
2019-04-01T15:20:26.400Z,22.50
2019-04-01T15:21:25.427Z,22.50
2019-04-01T15:22:27.153Z,22.50
2019-04-01T15:23:27.309Z,22.50
2019-04-01T15:24:25.428Z,22.50
2019-04-01T15:25:25.420Z,22.50
2019-04-01T15:26:53.140Z,22.50
2019-04-01T15:27:53.138Z,22.50
2019-04-01T15:28:53.134Z,22.50
2019-04-01T15:29:53.123Z,22.50
2019-04-01T15:30:53.119Z,22.50
2019-04-01T15:31:53.468Z,22.50
2019-04-01T15:32:53.103Z,22.50
2019-04-01T15:33:53.099Z,22.50
2019-04-01T15:34:53.090Z,22.50
2019-04-01T15:35:53.084Z,22.50
2019-04-01T15:36:53.084Z,22.50
2019-04-01T15:37:53.071Z,22.50
2019-04-01T15:38:53.066Z,22.50
2019-04-01T15:39:53.061Z,22.50
2019-04-01T15:40:53.053Z,22.50
2019-04-01T15:41:53.071Z,22.50
2019-04-01T15:42:53.066Z,22.50
2019-04-01T15:43:53.065Z,22.50
2019-04-01T15:44:53.054Z,22.50
2019-04-01T15:45:53.048Z,22.50
2019-04-01T15:46:53.124Z,22.50
2019-04-01T15:47:53.036Z,22.50
2019-04-01T15:48:53.033Z,22.50
2019-04-01T15:49:53.024Z,22.50
2019-04-01T15:50:53.019Z,16.87
2019-04-01T15:51:53.012Z,16.87
2019-04-01T15:52:53.006Z,16.87
2019-04-01T15:53:53.001Z,16.87
2019-04-01T15:54:52.994Z,16.87
2019-04-01T15:55:52.986Z,16.87
2019-04-01T15:56:52.978Z,16.87
2019-04-01T15:57:52.974Z,16.87
2019-04-01T15:58:52.966Z,16.87
2019-04-01T15:59:52.960Z,16.87
2019-04-01T16:00:52.952Z,16.87
2019-04-01T16:01:52.947Z,16.87
2019-04-01T16:02:52.939Z,16.87
2019-04-01T16:03:52.930Z,16.87
2019-04-01T16:04:52.925Z,16.87
2019-04-01T16:05:52.918Z,16.87
2019-04-01T16:06:52.911Z,16.87
2019-04-01T16:07:52.913Z,16.87
2019-04-01T16:08:53.217Z,16.87
2019-04-01T16:09:52.898Z,16.87
2019-04-01T16:10:52.889Z,16.87
2019-04-01T16:11:54.256Z,16.87
2019-04-01T16:13:52.873Z,16.87
2019-04-01T16:14:52.867Z,16.87
2019-04-01T16:15:52.866Z,16.87
2019-04-01T16:16:52.858Z,16.87
2019-04-01T16:17:54.039Z,16.87
2019-04-01T16:18:52.847Z,16.87
2019-04-01T16:20:20.565Z,16.87
2019-04-01T16:21:20.564Z,16.87
2019-04-01T16:22:21.913Z,16.87
2019-04-01T16:23:20.547Z,16.87
2019-04-01T16:24:20.544Z,16.87
2019-04-01T16:25:20.535Z,11.25
2019-04-01T16:26:20.532Z,11.25
2019-04-01T16:27:20.525Z,11.25
2019-04-01T16:28:20.518Z,11.25
2019-04-01T16:29:20.512Z,11.25
2019-04-01T16:30:20.505Z,11.25
2019-04-01T16:31:20.501Z,11.25
2019-04-01T16:32:20.495Z,11.25
2019-04-01T16:33:20.486Z,11.25
2019-04-01T16:34:20.481Z,11.25
2019-04-01T16:35:20.474Z,11.25
2019-04-01T16:36:20.469Z,11.25
2019-04-01T16:37:20.460Z,11.25
2019-04-01T16:38:20.457Z,11.25
2019-04-01T16:39:20.484Z,11.25
2019-04-01T16:40:20.458Z,11.25
2019-04-01T16:41:20.449Z,11.25
2019-04-01T16:42:20.443Z,11.25
2019-04-01T16:43:20.438Z,11.25
2019-04-01T16:44:20.430Z,11.25
2019-04-01T16:45:20.425Z,11.25
2019-04-01T16:46:20.426Z,11.25
2019-04-01T16:47:20.418Z,11.25
2019-04-01T16:48:20.403Z,11.25
2019-04-01T16:49:20.395Z,11.25
2019-04-01T16:50:20.389Z,11.25
2019-04-01T16:51:20.383Z,11.25
2019-04-01T16:52:20.375Z,11.25
2019-04-01T16:53:20.366Z,11.25
2019-04-01T16:54:20.361Z,11.25
2019-04-01T16:55:20.356Z,11.25
2019-04-01T16:56:20.350Z,5.62
2019-04-01T16:57:20.343Z,5.62
2019-04-01T16:58:20.336Z,5.62
2019-04-01T16:59:20.332Z,5.62
2019-04-01T17:00:20.326Z,5.62
2019-04-01T17:01:20.320Z,5.62
2019-04-01T17:02:21.469Z,5.62
2019-04-01T17:03:20.614Z,5.62
2019-04-01T17:04:20.298Z,5.62
2019-04-01T17:05:20.296Z,5.62
2019-04-01T17:06:20.286Z,5.62
2019-04-01T17:07:20.281Z,5.62
2019-04-01T17:08:20.273Z,5.62
2019-04-01T17:09:20.264Z,5.62
2019-04-01T17:10:20.259Z,5.62
2019-04-01T17:11:20.255Z,5.62
2019-04-01T17:12:20.248Z,5.62
2019-04-01T17:13:20.239Z,5.62
2019-04-01T17:14:20.235Z,5.62
2019-04-01T17:15:21.180Z,5.62
2019-04-01T17:16:20.220Z,5.62
2019-04-01T17:17:20.216Z,5.62
2019-04-01T17:18:20.209Z,5.62
2019-04-01T17:19:20.203Z,5.62
2019-04-01T17:20:20.196Z,5.62
2019-04-01T17:21:20.190Z,5.62
2019-04-01T17:22:20.185Z,5.62
2019-04-01T17:23:20.181Z,5.62
2019-04-01T17:24:20.168Z,5.62
2019-04-01T17:25:20.166Z,5.62
2019-04-01T17:26:20.158Z,0.00
2019-04-01T17:27:47.880Z,0.00
2019-04-01T17:28:47.877Z,0.00
2019-04-01T17:29:47.868Z,0.00
2019-04-01T17:30:47.863Z,0.00
2019-04-01T17:31:47.855Z,0.00
2019-04-01T17:32:47.850Z,0.00
2019-04-01T17:33:48.050Z,0.00
2019-04-01T17:34:47.851Z,0.00
2019-04-01T17:35:47.828Z,0.00
2019-04-01T17:36:47.821Z,0.00
2019-04-01T17:37:47.813Z,0.00
2019-04-01T17:38:48.251Z,0.00
2019-04-01T17:39:47.798Z,0.00
2019-04-01T17:40:47.794Z,0.00
2019-04-01T17:41:48.414Z,0.00
2019-04-01T17:42:47.781Z,0.00
2019-04-01T17:43:47.794Z,0.00
2019-04-01T17:44:47.790Z,0.00
2019-04-01T17:45:47.785Z,0.00
2019-04-01T17:46:47.829Z,0.00
2019-04-01T17:47:47.791Z,0.00
2019-04-01T17:48:47.784Z,0.00
2019-04-01T17:49:47.778Z,0.00
2019-04-01T17:50:47.773Z,0.00
2019-04-01T17:51:47.768Z,0.00
2019-04-01T17:52:47.761Z,0.00
2019-04-01T17:53:47.756Z,0.00
2019-04-01T17:54:48.184Z,0.00
2019-04-01T17:55:48.473Z,0.00
2019-04-01T17:56:47.735Z,0.00
2019-04-01T17:57:47.751Z,0.00
2019-04-01T17:58:47.722Z,0.00
2019-04-01T17:59:47.720Z,0.00
2019-04-01T18:01:15.435Z,0.00
2019-04-01T18:02:15.432Z,0.00
2019-04-01T18:03:15.426Z,0.00
2019-04-01T18:04:15.415Z,0.00
2019-04-01T18:05:15.413Z,0.00
2019-04-01T18:06:43.131Z,0.00
2019-04-01T18:07:43.177Z,0.00
2019-04-01T18:08:43.123Z,0.00
2019-04-01T18:09:43.138Z,0.00
2019-04-01T18:10:43.135Z,0.00
2019-04-01T18:11:43.126Z,0.00
2019-04-01T18:12:43.119Z,0.00
2019-04-01T18:14:43.106Z,0.00
2019-04-01T18:15:43.099Z,0.00
2019-04-01T18:16:43.459Z,0.00
2019-04-01T18:17:43.088Z,0.00
2019-04-01T18:18:43.081Z,0.00
2019-04-01T18:19:43.073Z,0.00
2019-04-01T18:20:43.076Z,0.00
2019-04-01T18:21:43.063Z,0.00
2019-04-01T18:22:43.057Z,0.00
2019-04-01T18:23:43.048Z,0.00
2019-04-01T18:24:43.041Z,0.00
2019-04-01T18:25:43.043Z,0.00
2019-04-01T18:26:43.034Z,0.00
2019-04-01T18:27:44.220Z,0.00
2019-04-01T18:28:43.019Z,0.00
2019-04-01T18:29:43.012Z,0.00
2019-04-01T18:30:43.010Z,0.00
2019-04-01T18:32:10.728Z,0.00
2019-04-01T18:33:10.725Z,0.00
2019-04-01T18:34:10.719Z,0.00
2019-04-01T18:35:10.715Z,0.00
2019-04-01T18:36:10.703Z,0.00
2019-04-01T18:37:10.700Z,0.00
2019-04-01T18:38:10.691Z,0.00
2019-04-01T18:39:10.683Z,0.00
2019-04-01T18:40:10.677Z,0.00
2019-04-01T18:41:10.670Z,0.00
2019-04-01T18:42:10.667Z,0.00
2019-04-01T18:43:10.656Z,0.00
2019-04-01T18:44:10.649Z,0.00
2019-04-01T18:45:10.847Z,0.00
2019-04-01T18:46:10.635Z,0.00
2019-04-01T18:47:10.632Z,0.00
2019-04-01T18:48:10.624Z,0.00
2019-04-01T18:49:10.617Z,0.00
2019-04-01T18:50:10.610Z,0.00
2019-04-01T18:51:10.976Z,0.00
2019-04-01T18:53:10.592Z,0.00
2019-04-01T18:55:10.581Z,0.00
2019-04-01T18:56:10.573Z,0.00
2019-04-01T18:57:10.568Z,0.00
2019-04-01T18:58:10.560Z,0.00
2019-04-01T18:59:10.555Z,0.00
2019-04-01T19:00:10.549Z,0.00
2019-04-01T19:01:10.539Z,0.00
2019-04-01T19:02:10.537Z,0.00
2019-04-01T19:03:10.690Z,0.00
2019-04-01T19:04:11.925Z,0.00
2019-04-01T19:05:10.537Z,0.00
2019-04-01T19:06:10.533Z,0.00
2019-04-01T19:07:10.530Z,0.00
2019-04-01T19:08:10.519Z,0.00
2019-04-01T19:09:11.814Z,0.00
2019-04-01T19:10:11.441Z,0.00
2019-04-01T19:11:10.539Z,0.00
2019-04-01T19:12:10.531Z,0.00
2019-04-01T19:13:12.364Z,0.00
2019-04-01T19:14:11.228Z,0.00
2019-04-01T19:15:10.621Z,0.00
2019-04-01T19:16:12.685Z,0.00
2019-04-01T19:17:10.464Z,0.00
2019-04-01T19:18:11.289Z,0.00
2019-04-01T19:19:11.286Z,0.00
2019-04-01T19:20:11.369Z,0.00
2019-04-01T19:21:10.449Z,0.00
2019-04-01T19:22:10.434Z,0.00
2019-04-01T19:23:10.428Z,0.00
2019-04-01T19:24:10.425Z,0.00
2019-04-01T19:25:10.418Z,0.00
2019-04-01T19:26:10.417Z,0.00
2019-04-01T19:27:10.399Z,0.00
2019-04-01T19:28:10.398Z,0.00
2019-04-01T19:29:10.387Z,0.00
2019-04-01T19:30:10.379Z,0.00
2019-04-01T19:31:11.992Z,0.00
2019-04-01T19:32:10.381Z,0.00
2019-04-01T19:33:10.367Z,0.00
2019-04-01T19:34:10.353Z,0.00
2019-04-01T19:35:38.094Z,0.00
2019-04-01T19:36:38.085Z,0.00
2019-04-01T19:37:38.082Z,0.00
2019-04-01T19:38:38.073Z,0.00
2019-04-01T19:39:38.067Z,0.00
2019-04-01T19:40:38.064Z,0.00
2019-04-01T19:41:38.053Z,0.00
2019-04-01T19:42:39.567Z,0.00
2019-04-01T19:43:38.041Z,0.00
2019-04-01T19:44:38.033Z,0.00
2019-04-01T19:45:38.028Z,0.00
2019-04-01T19:46:38.125Z,0.00
2019-04-01T19:47:38.012Z,0.00
2019-04-01T19:48:38.015Z,0.00
2019-04-01T19:49:38.009Z,0.00
2019-04-01T19:50:38.005Z,0.00
2019-04-01T19:51:37.995Z,0.00
2019-04-01T19:52:37.990Z,0.00
2019-04-01T19:53:37.982Z,0.00
2019-04-01T19:54:37.981Z,0.00
2019-04-01T19:55:37.971Z,0.00
2019-04-01T19:56:37.964Z,0.00
2019-04-01T19:57:37.958Z,0.00
2019-04-01T19:58:37.951Z,0.00
2019-04-01T19:59:37.946Z,0.00
2019-04-01T20:00:37.941Z,0.00
2019-04-01T20:01:37.929Z,0.00
2019-04-01T20:03:37.917Z,0.00
2019-04-01T20:04:37.909Z,0.00
2019-04-01T20:05:37.904Z,0.00
2019-04-01T20:06:40.628Z,0.00
2019-04-01T20:08:37.886Z,0.00
2019-04-01T20:10:37.885Z,0.00
2019-04-01T20:11:37.882Z,0.00
2019-04-01T20:12:37.873Z,0.00
2019-04-01T20:13:38.881Z,0.00
2019-04-01T20:14:37.863Z,0.00
2019-04-01T20:16:05.582Z,0.00
2019-04-01T20:17:05.578Z,0.00
2019-04-01T20:18:05.573Z,0.00
2019-04-01T20:19:05.781Z,0.00
2019-04-01T20:20:05.563Z,0.00
2019-04-01T20:21:05.555Z,0.00
2019-04-01T20:22:05.549Z,0.00
2019-04-01T20:23:05.543Z,0.00
2019-04-01T20:24:05.535Z,0.00
2019-04-01T20:25:05.527Z,0.00
2019-04-01T20:26:05.522Z,0.00
2019-04-01T20:27:05.519Z,0.00
2019-04-01T20:28:05.519Z,0.00
2019-04-01T20:29:05.504Z,0.00
2019-04-01T20:30:05.499Z,0.00
2019-04-01T20:31:06.476Z,0.00
2019-04-01T20:32:16.601Z,0.00
2019-04-01T20:33:33.208Z,0.00
2019-04-01T20:34:33.205Z,0.00
2019-04-01T20:35:34.551Z,0.00
2019-04-01T20:36:33.188Z,0.00
2019-04-01T20:37:33.219Z,0.00
2019-04-01T20:38:33.179Z,0.00
2019-04-01T20:39:33.171Z,0.00
2019-04-01T20:40:33.163Z,0.00
2019-04-01T20:41:33.158Z,0.00
2019-04-01T20:42:33.776Z,0.00
2019-04-01T20:43:33.145Z,0.00
2019-04-01T20:44:33.138Z,0.00
2019-04-01T20:45:33.133Z,0.00
2019-04-01T20:46:33.126Z,0.00
2019-04-01T20:47:33.119Z,0.00
2019-04-01T20:48:33.272Z,0.00
2019-04-01T20:49:33.106Z,0.00
2019-04-01T20:50:33.102Z,0.00
2019-04-01T20:51:33.094Z,0.00
2019-04-01T20:52:33.091Z,0.00
2019-04-01T20:53:33.083Z,0.00
2019-04-01T20:54:33.081Z,0.00
2019-04-01T20:55:33.073Z,0.00
2019-04-01T20:56:33.064Z,0.00
2019-04-01T20:57:33.059Z,0.00
2019-04-01T20:58:33.059Z,0.00
2019-04-01T20:59:33.049Z,0.00
2019-04-01T21:00:33.040Z,0.00
2019-04-01T21:01:33.035Z,0.00
2019-04-01T21:02:33.370Z,0.00
2019-04-01T21:03:33.021Z,0.00
2019-04-01T21:04:33.016Z,0.00
2019-04-01T21:05:33.010Z,0.00
2019-04-01T21:06:33.002Z,0.00
2019-04-01T21:07:32.997Z,0.00
2019-04-01T21:08:32.990Z,0.00
2019-04-01T21:09:32.980Z,0.00
2019-04-01T21:10:32.973Z,0.00
2019-04-01T21:11:32.967Z,0.00
2019-04-01T21:12:32.959Z,0.00